Bradley International Airport Hartford US
ICAO: KBDL
IATA: BDL
Category: Large
Scheduled Services: Yes

Elevation: 173 ft
TransAlt. 18000 ft.

Airport Communications:
APP:32.58
APP:123.95
ATIS:118.15
CLNC DEL:121.75
DEP:35.9
DEP:123.95
GND:121.9
ARNG OPS:41.9
ANG OPS:138.55
BRIDGEPORT RDO:122.3
TWR:120.3
UNICOM:122.95

KBDL Zoom In..

Runways:

(A) RW 01 length 4268 ft width 100 ft
---- / hdg 13

(B) RW 06 length 9510 ft width 200 ft
ILS 111.10 / hdg 58

(C) RW 15 length 6847 ft width 150 ft
---- / hdg 148

(D) RW 19 length 4268 ft width 100 ft
---- / hdg 193

(E) RW 24 length 9510 ft width 200 ft
ILS 111.10 / hdg 238

(F) RW 33 length 6847 ft width 150 ft
ILS 108.55 / hdg 328

Location; KBDL
Day. 20 / Time. 16.51 Zulu
* Altimeter: 29.87
* Temperature: 26° c. 78.8°f.
* Wind from: 250° Speed 12 kn.
Dewpoint: 18° c.
Visibility: 10 Statute Miles.
Clouds: Few 3000 ft.
Clouds: Broken 4200 ft.
Clouds: Broken 4900 ft.
Clouds: Broken 14000 ft.

KBDL 201651Z 25012KT 10SM FEW030 BKN042 BKN049 BKN140 26/18 A2987 RMK AO2 SLP115 T02560178


Wind From 250°
Speed 12 kn.

 
 
jpsmedia.com for Web Design SOUNDCLOUD worldairports.se 2018   terms of use